createdAt,value
2023-02-23T00:02:35.040Z,27.73
2023-02-23T00:06:36.825Z,30.07
2023-02-23T00:10:37.960Z,28.73
2023-02-23T00:14:39.116Z,30.60
2023-02-23T00:18:50.215Z,29.50
2023-02-23T00:22:54.457Z,33.43
2023-02-23T00:26:57.811Z,29.10
2023-02-23T00:31:01.769Z,31.80
2023-02-23T00:35:03.267Z,30.00
2023-02-23T00:39:08.944Z,31.17
2023-02-23T00:43:10.109Z,32.33
2023-02-23T00:47:11.268Z,30.70
2023-02-23T00:51:12.937Z,33.40
2023-02-23T00:55:14.809Z,31.30
2023-02-23T00:59:16.402Z,34.07
2023-02-23T01:03:17.554Z,32.70
2023-02-23T01:07:18.729Z,31.50
2023-02-23T01:11:22.167Z,29.23
2023-02-23T01:15:23.375Z,31.03
2023-02-23T01:19:24.481Z,30.00
2023-02-23T01:23:25.639Z,30.67
2023-02-23T01:27:26.802Z,30.47
2023-02-23T01:31:29.927Z,32.60
2023-02-23T01:35:32.649Z,32.37
2023-02-23T01:39:33.819Z,34.13
2023-02-23T01:43:36.383Z,32.60
2023-02-23T01:47:37.537Z,29.60
2023-02-23T01:51:45.428Z,32.50
2023-02-23T01:55:56.047Z,31.93
2023-02-23T01:59:57.434Z,29.67
2023-02-23T02:04:06.641Z,30.73
2023-02-23T02:08:09.898Z,30.60
2023-02-23T02:12:11.644Z,31.20
2023-02-23T02:16:22.737Z,29.40
2023-02-23T02:20:37.852Z,31.10
2023-02-23T02:25:07.998Z,33.10
2023-02-23T02:29:28.052Z,31.70
2023-02-23T02:33:45.146Z,31.80
2023-02-23T02:37:54.966Z,31.00
2023-02-23T02:42:17.451Z,31.87
2023-02-23T02:46:28.492Z,29.67
2023-02-23T02:50:50.360Z,30.77
2023-02-23T02:55:04.914Z,32.27
2023-02-23T02:59:34.385Z,31.13
2023-02-23T03:03:57.500Z,31.50
2023-02-23T03:08:32.728Z,29.70
2023-02-23T03:13:11.457Z,32.63
2023-02-23T03:17:58.411Z,30.47
2023-02-23T03:22:22.140Z,32.07
2023-02-23T03:27:00.832Z,32.07
2023-02-23T03:31:30.421Z,31.93
2023-02-23T03:35:59.669Z,34.27
2023-02-23T03:40:32.649Z,31.90
2023-02-23T03:44:56.095Z,35.50
2023-02-23T03:49:19.978Z,32.43
2023-02-23T03:53:52.515Z,29.80
2023-02-23T03:58:15.840Z,30.60
2023-02-23T04:02:37.803Z,30.10
2023-02-23T04:07:01.573Z,30.50
2023-02-23T04:11:33.515Z,30.47
2023-02-23T04:15:37.964Z,32.07
2023-02-23T04:19:51.312Z,28.70
2023-02-23T04:23:52.361Z,30.57
2023-02-23T04:27:53.612Z,27.37
2023-02-23T04:31:54.736Z,29.00
2023-02-23T04:35:55.914Z,30.50
2023-02-23T04:39:56.958Z,29.50
2023-02-23T04:43:58.102Z,33.10
2023-02-23T04:47:59.261Z,31.20
2023-02-23T04:52:00.685Z,30.07
2023-02-23T04:56:01.852Z,32.40
2023-02-23T05:00:04.443Z,31.30
2023-02-23T05:04:05.511Z,32.53
2023-02-23T05:08:06.661Z,32.87
2023-02-23T05:12:08.211Z,32.07
2023-02-23T05:16:09.401Z,33.23
2023-02-23T05:20:12.414Z,33.50
2023-02-23T05:24:13.588Z,37.10
2023-02-23T05:28:14.656Z,32.67
2023-02-23T05:32:15.940Z,32.97
2023-02-23T05:36:19.988Z,33.90
2023-02-23T05:40:21.333Z,34.47
2023-02-23T05:44:22.585Z,34.53
2023-02-23T05:48:23.755Z,35.67
2023-02-23T05:52:24.904Z,33.37
2023-02-23T05:56:26.875Z,33.40
2023-02-23T06:00:28.793Z,35.07
2023-02-23T06:04:29.966Z,35.37
2023-02-23T06:08:31.093Z,32.80
2023-02-23T06:12:32.549Z,36.67
2023-02-23T06:16:33.820Z,33.30
2023-02-23T06:20:37.076Z,38.50
2023-02-23T06:24:38.793Z,37.10
2023-02-23T06:28:39.960Z,39.47
2023-02-23T06:32:41.113Z,38.27
2023-02-23T06:36:42.278Z,36.87
2023-02-23T06:40:43.753Z,36.83
2023-02-23T06:44:44.908Z,34.33
2023-02-23T06:48:46.163Z,36.47
2023-02-23T06:52:48.880Z,36.50
2023-02-23T06:56:50.438Z,34.83
2023-02-23T07:00:53.480Z,37.57
2023-02-23T07:04:54.652Z,36.87
2023-02-23T07:08:57.637Z,35.00
2023-02-23T07:12:58.859Z,35.93
2023-02-23T07:17:00.132Z,33.83
2023-02-23T07:21:01.578Z,37.20
2023-02-23T07:25:03.835Z,36.67
2023-02-23T07:29:04.969Z,38.53
2023-02-23T07:33:06.053Z,38.07
2023-02-23T07:37:07.215Z,39.77
2023-02-23T07:41:08.354Z,40.67
2023-02-23T07:45:10.177Z,40.70
2023-02-23T07:49:12.028Z,45.93
2023-02-23T07:53:13.577Z,40.63
2023-02-23T07:57:14.728Z,44.47
2023-02-23T08:01:15.940Z,44.30
2023-02-23T08:05:17.133Z,40.60
2023-02-23T08:09:18.306Z,46.10
2023-02-23T08:13:19.452Z,48.00
2023-02-23T08:17:20.535Z,47.70
2023-02-23T08:21:21.883Z,42.50
2023-02-23T08:25:24.028Z,44.77
2023-02-23T08:29:25.150Z,42.67
2023-02-23T08:33:26.418Z,43.67
2023-02-23T08:37:29.469Z,42.70
2023-02-23T08:41:31.618Z,39.63
2023-02-23T08:45:32.805Z,40.23
2023-02-23T08:49:33.972Z,36.87
2023-02-23T08:53:35.629Z,37.03
2023-02-23T08:57:37.130Z,32.33
2023-02-23T09:01:38.550Z,36.43
2023-02-23T09:05:39.889Z,31.80
2023-02-23T09:09:41.308Z,32.97
2023-02-23T09:13:43.878Z,31.23
2023-02-23T09:17:46.653Z,32.80
2023-02-23T09:21:47.809Z,30.13
2023-02-23T09:25:49.572Z,28.97
2023-02-23T09:29:50.755Z,32.83
2023-02-23T09:33:52.918Z,31.40
2023-02-23T09:37:55.479Z,32.00
2023-02-23T09:42:09.503Z,30.90
2023-02-23T09:46:28.204Z,31.03
2023-02-23T09:50:32.994Z,31.17
2023-02-23T09:54:36.074Z,23.37
2023-02-23T09:58:37.810Z,29.10
2023-02-23T10:02:45.885Z,29.50
2023-02-23T10:06:53.767Z,29.57
2023-02-23T10:11:14.052Z,29.03
2023-02-23T10:15:36.846Z,29.10
2023-02-23T10:19:45.051Z,26.73
2023-02-23T10:23:50.199Z,29.23
2023-02-23T10:27:55.085Z,28.67
2023-02-23T10:32:09.173Z,25.43
2023-02-23T10:36:19.700Z,24.90
2023-02-23T10:40:24.304Z,25.37
2023-02-23T10:44:28.493Z,25.70
2023-02-23T10:48:42.441Z,24.80
2023-02-23T10:52:46.191Z,21.47
2023-02-23T10:56:47.412Z,23.00
2023-02-23T11:01:00.660Z,21.87
2023-02-23T11:05:04.911Z,22.03
2023-02-23T11:09:41.284Z,23.60
2023-02-23T11:13:38.581Z,21.37
2023-02-23T11:17:39.845Z,23.73
2023-02-23T11:21:41.017Z,22.87
2023-02-23T11:25:45.008Z,22.80
2023-02-23T11:29:50.309Z,20.37
2023-02-23T11:33:54.569Z,20.83
2023-02-23T11:37:57.612Z,17.97
2023-02-23T11:42:22.639Z,18.53
2023-02-23T11:46:26.284Z,18.30
2023-02-23T11:50:30.124Z,18.37
2023-02-23T11:54:34.613Z,17.63
2023-02-23T11:58:49.151Z,18.53
2023-02-23T12:02:54.732Z,16.80
2023-02-23T12:07:22.684Z,12.73
2023-02-23T12:11:27.453Z,13.73
2023-02-23T12:15:41.101Z,12.17
2023-02-23T12:19:48.746Z,13.97
2023-02-23T12:23:53.717Z,11.20
2023-02-23T12:28:18.225Z,10.73
2023-02-23T12:32:13.121Z,10.73
2023-02-23T12:36:25.585Z,30.30
2023-02-23T12:40:32.396Z,24.67
2023-02-23T12:44:40.366Z,16.90
2023-02-23T12:48:45.334Z,13.67
2023-02-23T12:52:58.928Z,13.67
2023-02-23T12:57:18.905Z,12.30
2023-02-23T13:01:36.043Z,12.20
2023-02-23T13:05:57.908Z,11.73
2023-02-23T13:10:21.171Z,11.07
2023-02-23T13:14:53.304Z,9.33
2023-02-23T13:19:02.905Z,11.20
2023-02-23T13:23:11.071Z,10.30
2023-02-23T13:27:16.523Z,11.13
2023-02-23T13:31:27.572Z,11.80
2023-02-23T13:35:32.917Z,50.10
2023-02-23T13:40:12.824Z,12.20
2023-02-23T13:44:33.119Z,11.37
2023-02-23T13:48:55.657Z,12.47
2023-02-23T13:52:48.910Z,11.83
2023-02-23T13:57:00.036Z,11.27
2023-02-23T14:01:11.016Z,10.87
2023-02-23T14:05:24.018Z,11.47
2023-02-23T14:09:43.860Z,10.53
2023-02-23T14:13:49.162Z,10.60
2023-02-23T14:18:02.381Z,11.13
2023-02-23T14:22:09.147Z,10.93
2023-02-23T14:26:32.587Z,9.97
2023-02-23T14:30:50.291Z,10.43
2023-02-23T14:34:56.383Z,10.60
2023-02-23T14:39:00.736Z,9.57
2023-02-23T14:43:03.304Z,10.37
2023-02-23T14:47:14.641Z,10.43
2023-02-23T14:51:29.060Z,8.23
2023-02-23T14:55:34.487Z,9.67
2023-02-23T14:59:38.962Z,9.60
2023-02-23T15:03:40.115Z,10.10
2023-02-23T15:07:41.480Z,10.10
2023-02-23T15:11:45.150Z,9.23
2023-02-23T15:15:46.653Z,9.40
2023-02-23T15:19:51.326Z,8.80
2023-02-23T15:23:59.301Z,8.43
2023-02-23T15:28:19.605Z,9.17
2023-02-23T15:32:24.346Z,9.13
2023-02-23T15:36:29.348Z,11.27
2023-02-23T15:40:30.760Z,11.23
2023-02-23T15:44:42.399Z,15.27
2023-02-23T15:48:45.064Z,18.27
2023-02-23T15:52:50.075Z,16.53
2023-02-23T15:57:03.784Z,16.33
2023-02-23T16:01:12.262Z,16.70
2023-02-23T16:05:21.561Z,17.80
2023-02-23T16:09:28.762Z,27.80
2023-02-23T16:13:30.006Z,19.50
2023-02-23T16:17:41.004Z,16.20
2023-02-23T16:21:44.471Z,17.57
2023-02-23T16:25:45.662Z,16.63
2023-02-23T16:29:48.727Z,15.50
2023-02-23T16:34:00.841Z,14.10
2023-02-23T16:38:04.123Z,13.80
2023-02-23T16:42:05.338Z,14.40
2023-02-23T16:46:06.540Z,13.50
2023-02-23T16:50:19.818Z,14.70
2023-02-23T16:54:18.900Z,13.20
2023-02-23T16:58:22.556Z,13.77
2023-02-23T17:02:23.837Z,14.43
2023-02-23T17:06:25.345Z,13.17
2023-02-23T17:10:31.944Z,13.63
2023-02-23T17:14:33.155Z,13.83
2023-02-23T17:18:36.777Z,14.00
2023-02-23T17:22:37.818Z,14.90
2023-02-23T17:26:38.985Z,14.97
2023-02-23T17:30:41.969Z,15.93
2023-02-23T17:34:43.102Z,15.70
2023-02-23T17:38:44.717Z,14.10
2023-02-23T17:42:45.891Z,15.07
2023-02-23T17:46:47.856Z,15.40
2023-02-23T17:50:57.897Z,15.83
2023-02-23T17:55:00.196Z,15.30
2023-02-23T17:59:01.880Z,17.07
2023-02-23T18:03:03.100Z,17.30
2023-02-23T18:07:04.266Z,16.93
2023-02-23T18:11:05.843Z,16.00
2023-02-23T18:15:07.526Z,17.43
2023-02-23T18:19:08.577Z,16.80
2023-02-23T18:23:09.649Z,17.93
2023-02-23T18:27:11.915Z,17.60
2023-02-23T18:31:16.333Z,18.30
2023-02-23T18:35:17.605Z,18.87
2023-02-23T18:39:19.070Z,19.20
2023-02-23T18:43:20.219Z,18.20
2023-02-23T18:47:21.390Z,17.23
2023-02-23T18:51:23.265Z,15.80
2023-02-23T18:55:24.384Z,16.00
2023-02-23T18:59:25.554Z,16.90
2023-02-23T19:03:27.201Z,16.43
2023-02-23T19:07:31.059Z,14.33
2023-02-23T19:11:33.424Z,14.87
2023-02-23T19:15:35.374Z,14.23
2023-02-23T19:19:37.455Z,14.83
2023-02-23T19:23:38.675Z,14.40
2023-02-23T19:27:40.646Z,16.50
2023-02-23T19:31:41.979Z,16.60
2023-02-23T19:35:43.669Z,15.87
2023-02-23T19:39:45.634Z,15.70
2023-02-23T19:43:47.209Z,16.00
2023-02-23T19:47:50.872Z,17.37
2023-02-23T19:51:52.306Z,15.90
2023-02-23T19:56:12.428Z,15.97
2023-02-23T20:00:14.164Z,17.20
2023-02-23T20:04:15.361Z,18.37
2023-02-23T20:08:18.565Z,16.10
2023-02-23T20:12:19.740Z,14.20
2023-02-23T20:16:21.162Z,16.00
2023-02-23T20:20:24.241Z,16.80
2023-02-23T20:24:25.572Z,17.47
2023-02-23T20:28:26.775Z,16.93
2023-02-23T20:32:28.210Z,18.73
2023-02-23T20:36:29.671Z,20.27
2023-02-23T20:40:30.858Z,18.33
2023-02-23T20:44:32.261Z,19.27
2023-02-23T20:48:34.772Z,18.40
2023-02-23T20:52:37.547Z,18.40
2023-02-23T20:56:41.355Z,18.50
2023-02-23T21:00:43.463Z,19.80
2023-02-23T21:04:44.648Z,17.60
2023-02-23T21:08:48.207Z,19.47
2023-02-23T21:12:49.423Z,19.60
2023-02-23T21:16:50.691Z,17.20
2023-02-23T21:20:52.039Z,18.93
2023-02-23T21:24:53.195Z,17.83
2023-02-23T21:28:54.371Z,19.67
2023-02-23T21:32:59.014Z,19.23
2023-02-23T21:37:00.624Z,18.73
2023-02-23T21:41:01.903Z,19.50
2023-02-23T21:45:03.431Z,17.83
2023-02-23T21:49:06.545Z,19.17
2023-02-23T21:53:08.959Z,18.67
2023-02-23T21:57:10.385Z,18.53
2023-02-23T22:01:21.550Z,20.43
2023-02-23T22:05:22.958Z,22.00
2023-02-23T22:09:24.151Z,22.67
2023-02-23T22:13:25.361Z,22.90
2023-02-23T22:17:26.871Z,25.90
2023-02-23T22:21:28.688Z,25.57
2023-02-23T22:25:29.946Z,23.67
2023-02-23T22:29:31.190Z,22.00
2023-02-23T22:33:33.692Z,25.87
2023-02-23T22:37:35.994Z,25.80
2023-02-23T22:41:39.098Z,25.03
2023-02-23T22:45:41.392Z,24.80
2023-02-23T22:49:42.725Z,22.97
2023-02-23T22:53:44.498Z,24.87
2023-02-23T22:57:47.054Z,24.63
2023-02-23T23:01:49.523Z,24.33
2023-02-23T23:05:50.674Z,24.47
2023-02-23T23:09:53.672Z,23.67
2023-02-23T23:14:00.016Z,22.30
2023-02-23T23:18:02.051Z,23.63
2023-02-23T23:22:03.211Z,24.93
2023-02-23T23:26:06.328Z,24.00
2023-02-23T23:30:10.502Z,23.73
2023-02-23T23:34:12.858Z,26.30
2023-02-23T23:38:14.096Z,23.27
2023-02-23T23:42:15.184Z,24.63
2023-02-23T23:46:20.590Z,24.37
2023-02-23T23:50:23.628Z,23.27
2023-02-23T23:54:30.113Z,24.13
2023-02-23T23:58:32.672Z,23.43
